• Join FlightAware (Why Join?)
  • Login
  • US Flag 
09:36PM EDT


 

Airport Tracker/Info


-or-


 

Live Flight TrackerFlight Track Log ✈ AWI3778 ✈ 16-Aug-2013 ✈ KBTV - KPHL

Flight Track Log - Related Links

Times and Time Zones

All times are in EDT time to prevent confusion due to time zone crossing. See the AWI3778 flight status page for this flight to view local times or setup timezone preferences in your user account.

Time Position Orientation Groundspeed Altitude Reporting Facility
EDT Latitude Longitude Course Direction KTS MPH feet Rate Location/Type
01:32PM 44.1733 -73.2574 196° South  Level FlightAware Approximate
01:32PM 44.2631 -73.1764 197° South 298 343 8,100  Level Boston Center
01:33PM 44.0758 -73.2964 196° South  Level FlightAware Approximate
01:33PM 44.1900 -73.2072 197° South 283 326 10,800  Level Boston Center
01:34PM 43.9783 -73.3354 196° South  Level FlightAware Approximate
01:34PM 44.1086 -73.2411 197° South 297 342 12,800  Level Boston Center
01:35PM 43.8807 -73.3738 195° South  Level FlightAware Approximate
01:35PM 44.0269 -73.2775 198° South 308 354 15,600  Level Boston Center
01:36PM 43.7827 -73.4100 195° South  Level FlightAware Approximate
01:36PM 43.9497 -73.3108 197° South 300 345 17,800  Level Boston Center
01:37PM 43.6846 -73.4462 195° South  Level FlightAware Approximate
01:37PM 43.8764 -73.3647 208° Southwest 294 338 18,800  Level Boston Center
01:38PM 43.8028 -73.4353 215° Southwest 316 364 19,900 1,080 Climbing Boston Center
01:39PM 43.7314 -73.5061 216° Southwest 346 398 21,000 1,020 Climbing Boston Center
01:40PM 43.6514 -73.5792 213° Southwest 351 404 22,000 900 Climbing Boston Center
01:41PM 43.5861 -73.6411 215° Southwest 351 404 22,900 960 Climbing Boston Center
01:42PM 43.4872 -73.7392 216° Southwest 361 415 24,000 540 Climbing Boston Center
01:43PM 43.3903 -73.8286 214° Southwest 374 430 24,000  Level Boston Center
01:44PM 43.3017 -73.9122 214° Southwest 387 445 24,000  Level Boston Center
01:45PM 43.2131 -73.9983 215° Southwest 392 451 24,000  Level Boston Center
01:46PM 43.1222 -74.0814 214° Southwest 397 457 24,000  Level Boston Center
01:47PM 43.0333 -74.1672 215° Southwest 397 457 24,000  Level Boston Center
01:48PM 42.9425 -74.2553 215° Southwest 404 465 24,000  Level Boston Center
01:49PM 42.8514 -74.3375 213° Southwest 404 465 24,000  Level Boston Center
01:50PM 42.7625 -74.4225 215° Southwest 404 465 24,000  Level Boston Center
01:51PM 42.6733 -74.5044 214° Southwest 404 465 24,000  Level Boston Center
01:52PM 42.5844 -74.5861 214° Southwest 404 465 24,000 -180 Level Boston Center
01:53PM 42.4953 -74.6703 215° Southwest 399 459 23,700 -540 Descending Boston Center
01:54PM 42.4081 -74.7514 214° Southwest 399 459 23,000 -780 Descending Boston Center
01:55PM 42.3189 -74.8353 215° Southwest 399 459 22,200 -840 Descending Boston Center
01:57PM 42.2275 -74.9131 212° Southwest 399 459 21,200 -960 Descending Boston Center
01:59PM 41.9981 -75.1106 213° Southwest 381 438 19,000 -660 Descending New York Center
02:00PM 41.9167 -75.1747 210° Southwest 387 445 19,000 -120 Level New York Center
02:01PM 41.8286 -75.2469 211° Southwest 387 445 18,800 -1,140 Descending New York Center
02:02PM 41.7342 -75.3211 210° Southwest 373 429 16,800 -1,980 Descending New York Center
02:03PM 41.6503 -75.3903 212° Southwest 365 420 14,900 -1,860 Descending New York Center
02:04PM 41.5622 -75.4619 211° Southwest 376 433 13,100 -1,440 Descending New York Center
02:05PM 41.4825 -75.5228 210° Southwest 376 433 12,100 -600 Descending New York Center
02:06PM 41.3986 -75.5914 212° Southwest 371 427 12,000 -60 Descending New York Center
02:07PM 41.3106 -75.6569 209° Southwest 371 427 12,000  Level New York Center
02:08PM 41.2072 -75.6881 193° South 352 405 12,000  Level New York Center
02:09PM 41.1072 -75.6892 180° South 357 411 12,000  Level New York Center
02:10PM 41.0072 -75.6875 179° South 363 418 12,000  Level New York Center
02:11PM 40.9050 -75.6883 180° South 368 423 12,000  Level New York Center
02:12PM 40.8053 -75.6867 179° South 368 423 12,000 -540 Level New York Center
02:13PM 40.7242 -75.6286 152° Southeast 357 411 11,000 -1,020 Descending New York Center
02:14PM 40.6250 -75.5589 152° Southeast 364 419 10,000 -540 Descending New York Center
02:15PM 40.5481 -75.5014 150° Southeast 357 411 10,000 -360 Level New York Center
02:16PM 40.4689 -75.4469 152° Southeast 307 353 9,300 -1,380 Descending New York Center
02:17PM 40.4100 -75.4103 155° Southeast 282 325 7,300 -1,200 Descending New York Center
02:18PM 40.3347 -75.3644 155° Southeast 271 312 6,900 -960 Descending New York Center
02:19PM 40.2692 -75.3300 158° South 271 312 5,400 -1,440 Descending New York Center
02:20PM 40.2058 -75.3014 161° South 261 300 4,100 -720 Descending New York Center
02:21PM 40.1444 -75.2731 161° South 234 269 4,000 -60 Descending New York Center
02:22PM 40.0892 -75.2450 159° South 217 250 4,000  Level New York Center
02:23PM 40.0358 -75.2200 160° South 217 250 4,000  Level New York Center
02:24PM 39.9764 -75.1917 160° South 217 250 4,000  Level New York Center
02:25PM 39.9317 -75.1672 157° South 212 244 4,000  Level New York Center
02:26PM 39.8742 -75.1419 161° South 207 238 4,000 -60 Level New York Center
02:27PM 39.8228 -75.1172 160° South 207 238 3,900 -960 Descending New York Center
02:28PM 39.7897 -75.1664 229° Southwest 171 197 2,100 -1,200 Descending New York Center
02:29PM 39.8167 -75.2000 316° Northwest 158 182 1,200 -840 Descending Philadelphia TRACON
02:30PM 39.8667 -75.2167 346° North 154 177 300 -1,020 Descending Philadelphia TRACON